Flight Track Log - Related Links

Times and Time Zones

All times are in EDT time to prevent confusion due to time zone crossing. See the CTL14 flight status page for this flight to view local times or setup timezone preferences in your user account.

Time Position Orientation Groundspeed Altitude Reporting Facility
EDT Latitude Longitude Course Direction KTS MPH feet Rate Location/Type
Thu 09:23:31 PM 39.2833 -85.9000 360° North 124 143 1,400  Level Indianapolis TRACON
Thu 09:24:07 PM 39.3000 -85.9000 360° North 115 132 2,100 1,175 Climbing Indianapolis TRACON
Thu 09:25:08 PM 39.3217 -85.8783 38° Northeast 119 137 3,300 927 Climbing Indianapolis Center
Thu 09:26:10 PM 39.3583 -85.8672 13° North 131 151 4,000 390 Climbing Indianapolis Center
Thu 09:27:11 PM 39.4014 -85.8739 353° North 147 169 4,100  Climbing Indianapolis Center
Thu 09:28:12 PM 39.4467 -85.8836 351° North 157 181 4,000 146 Descending Indianapolis Center
Thu 09:29:14 PM 39.4744 -85.9289 308° West 159 183 4,400 634 Climbing Indianapolis Center
Thu 09:30:15 PM 39.4919 -85.9708 298° West 142 163 5,300 787 Climbing Indianapolis Center
Thu 09:31:16 PM 39.5072 -86.0175 293° West 138 159 6,000 344 Climbing Indianapolis Center
Thu 09:32:17 PM 39.5283 -86.0778 294° West 152 175 6,000  Level Indianapolis Center
Thu 09:33:19 PM 39.5486 -86.1317 296° West 160 184 6,000  Level Indianapolis Center
Thu 09:34:20 PM 39.5686 -86.1858 296° West 163 188 6,000  Level Indianapolis Center
Thu 09:35:21 PM 39.5886 -86.2397 296° West 164 189 6,000  Level Indianapolis Center
Thu 09:36:23 PM 39.6089 -86.2936 296° West 164 189 6,000 49 Level Indianapolis Center
Thu 09:37:24 PM 39.6281 -86.3478 295° West 164 189 6,100  Climbing Indianapolis Center
Thu 09:38:14 PM 39.6500 -86.4000 299° West 165 190 6,000 -55 Descending Indianapolis TRACON
Thu 09:39:14 PM 39.6667 -86.4500 293° West 163 188 6,000  Level Indianapolis TRACON
Thu 09:40:14 PM 39.6833 -86.5000 293° West 159 183 6,000  Level Indianapolis TRACON
Thu 09:41:14 PM 39.7000 -86.5500 293° West 162 186 6,000  Level Indianapolis TRACON
Thu 09:41:29 PM 39.7058 -86.5619 302° West 161 185 6,000  Level Indianapolis Center
Thu 09:42:30 PM 39.7242 -86.6156 294° West 161 185 6,000  Level Indianapolis Center
Thu 09:43:32 PM 39.7419 -86.6675 294° West 158 182 6,000  Level Indianapolis Center
Thu 09:44:33 PM 39.7600 -86.7206 294° West 158 182 6,000 49 Level Indianapolis Center
Thu 09:45:34 PM 39.7781 -86.7733 294° West 159 183 6,100 49 Climbing Indianapolis Center
Thu 09:46:36 PM 39.7953 -86.8250 293° West 156 180 6,100  Level Indianapolis Center
Thu 09:47:37 PM 39.8125 -86.8772 293° West 157 181 6,100 -49 Level Indianapolis Center
Thu 09:48:38 PM 39.8331 -86.9381 294° West 156 180 6,000 -49 Descending Indianapolis Center
Thu 09:49:40 PM 39.8489 -86.9922 291° West 158 182 6,000 49 Level Indianapolis Center
Thu 09:50:41 PM 39.8697 -87.0422 299° West 156 180 6,100 49 Climbing Indianapolis Center
Thu 09:51:42 PM 39.8842 -87.0961 289° West 157 181 6,100  Level Indianapolis Center
Thu 09:52:44 PM 39.9042 -87.1467 297° West 157 181 6,100 -49 Level Indianapolis Center
Thu 09:53:45 PM 39.9222 -87.1983 295° West 156 180 6,000  Descending Indianapolis Center
Thu 09:54:46 PM 39.9386 -87.2503 292° West 156 180 6,100  Climbing Indianapolis Center
Thu 09:55:48 PM 39.9578 -87.3025 296° West 157 181 6,000 -49 Descending Indianapolis Center
Thu 09:56:49 PM 39.9767 -87.3550 295° West 158 182 6,000 49 Level Indianapolis Center
Thu 09:57:50 PM 39.9919 -87.4086 290° West 158 182 6,100  Climbing Indianapolis Center
Thu 09:58:51 PM 40.0103 -87.4597 295° West 156 180 6,000 -49 Descending Indianapolis Center
Thu 09:59:53 PM 40.0264 -87.5131 292° West 156 180 6,000 49 Level Indianapolis Center
Thu 10:00:54 PM 40.0417 -87.5667 290° West 157 181 6,100 49 Climbing Indianapolis Center
Thu 10:01:55 PM 40.0636 -87.6264 296° West 156 180 6,100  Level Indianapolis Center
Thu 10:02:56 PM 40.0825 -87.6781 296° West 156 180 6,100  Level Indianapolis Center
Thu 10:03:57 PM 40.0997 -87.7308 293° West 157 181 6,100 -49 Level Indianapolis Center
Thu 10:04:59 PM 40.1181 -87.7831 295° West 157 181 6,000  Descending Indianapolis Center
Thu 10:06:00 PM 40.1344 -87.8364 292° West 157 181 6,100 49 Climbing Indianapolis Center
Thu 10:07:01 PM 40.1511 -87.8892 292° West 156 180 6,100  Level Indianapolis Center
Thu 10:07:23 PM 40.1575 -87.9058 297° West 156 180 6,100  Level Chicago Center
Thu 10:08:24 PM 40.1753 -87.9581 294° West 156 180 6,100  Level Chicago Center
Thu 10:09:26 PM 40.1914 -88.0117 291° West 156 180 6,100 -48 Level Chicago Center
Thu 10:10:28 PM 40.2114 -88.0617 298° West 153 176 6,000 -49 Descending Chicago Center
Thu 10:11:29 PM 40.2292 -88.1156 293° West 158 182 6,000 49 Level Chicago Center
Thu 10:12:31 PM 40.2464 -88.1667 294° West 156 180 6,100 97 Climbing Chicago Center
Thu 10:13:33 PM 40.2675 -88.2308 293° West 159 183 6,200  Climbing Chicago Center
Thu 10:14:34 PM 40.2817 -88.2850 289° West 158 182 6,100 -98 Descending Chicago Center
Thu 10:15:36 PM 40.2958 -88.3394 289° West 159 183 6,000 -49 Descending Chicago Center
Thu 10:16:37 PM 40.3150 -88.3908 296° West 159 183 6,000 -293 Level Chicago Center
Thu 10:17:39 PM 40.3325 -88.4486 292° West 167 192 5,400 -585 Descending Chicago Center
Thu 10:18:40 PM 40.3494 -88.5044 292° West 174 200 4,800 -585 Descending Chicago Center
Thu 10:19:42 PM 40.3725 -88.5750 293° West 175 201 4,200 -537 Descending Chicago Center
Thu 10:20:43 PM 40.3897 -88.6350 291° West 175 201 3,700 -390 Descending Chicago Center
Thu 10:21:45 PM 40.4117 -88.6919 297° West 175 201 3,400 -390 Descending Chicago Center
Thu 10:22:46 PM 40.4322 -88.7469 296° West 171 197 2,900 -439 Descending Chicago Center
Thu 10:23:48 PM 40.4519 -88.8047 294° West 172 198 2,500 -585 Descending Chicago Center
Thu 10:24:49 PM 40.4656 -88.8625 287° West 170 196 1,700 -488 Descending Chicago Center
Thu 10:25:51 PM 40.4786 -88.9178 287° West 168 193 1,500 -194 Descending Chicago Center
Thu 10:27:00 PM 40.4771 -88.9159 303° West  Level Estimated
Thu 10:34:00 PM 40.4771 -88.9159 303° West  Level Estimated
Thu 10:35:00 PM 40.4771 -88.9159 303° West  Level Estimated
Thu 10:36:00 PM 40.4771 -88.9159 303° West  Level Estimated

Login

Don't have an account? Register now (free) for customized features, flight alerts, and more!